createdAt,value
2022-11-29T00:01:26.036Z,17.42
2022-11-29T00:03:53.854Z,17.27
2022-11-29T00:06:24.416Z,16.75
2022-11-29T00:08:51.871Z,16.80
2022-11-29T00:11:41.266Z,17.33
2022-11-29T00:14:11.737Z,16.40
2022-11-29T00:16:42.551Z,16.27
2022-11-29T00:19:11.799Z,17.23
2022-11-29T00:21:39.525Z,16.48
2022-11-29T00:24:07.675Z,16.17
2022-11-29T00:26:37.143Z,16.48
2022-11-29T00:29:05.007Z,16.58
2022-11-29T00:31:33.508Z,15.88
2022-11-29T00:34:03.415Z,15.65
2022-11-29T00:36:31.289Z,16.20
2022-11-29T00:38:58.992Z,16.98
2022-11-29T00:41:26.844Z,15.32
2022-11-29T00:43:54.496Z,17.23
2022-11-29T00:46:22.091Z,15.18
2022-11-29T00:48:49.769Z,15.15
2022-11-29T00:51:17.228Z,15.95
2022-11-29T00:53:44.820Z,16.95
2022-11-29T00:56:12.264Z,16.10
2022-11-29T00:58:40.289Z,16.10
2022-11-29T01:01:07.949Z,16.25
2022-11-29T01:03:35.551Z,16.65
2022-11-29T01:06:08.984Z,15.63
2022-11-29T01:08:37.532Z,17.35
2022-11-29T01:11:11.030Z,16.00
2022-11-29T01:13:39.579Z,16.25
2022-11-29T01:16:07.638Z,15.98
2022-11-29T01:18:36.119Z,16.27
2022-11-29T01:21:10.053Z,15.90
2022-11-29T01:23:38.300Z,17.00
2022-11-29T01:26:13.933Z,15.93
2022-11-29T01:28:42.233Z,15.98
2022-11-29T01:31:16.116Z,15.70
2022-11-29T01:33:43.799Z,15.45
2022-11-29T01:36:13.382Z,16.20
2022-11-29T01:38:42.577Z,15.07
2022-11-29T01:41:15.831Z,14.70
2022-11-29T01:44:04.910Z,14.63
2022-11-29T01:46:35.523Z,13.80
2022-11-29T01:49:12.071Z,13.77
2022-11-29T01:51:43.253Z,12.77
2022-11-29T01:54:11.647Z,13.32
2022-11-29T01:56:39.256Z,12.02
2022-11-29T01:59:11.415Z,12.77
2022-11-29T02:01:39.176Z,11.48
2022-11-29T02:04:07.502Z,11.60
2022-11-29T02:06:36.288Z,11.50
2022-11-29T02:09:04.826Z,12.82
2022-11-29T02:12:06.101Z,12.38
2022-11-29T02:14:46.441Z,12.13
2022-11-29T02:17:45.072Z,13.07
2022-11-29T02:20:33.840Z,13.80
2022-11-29T02:23:39.484Z,13.80
2022-11-29T02:26:26.175Z,13.25
2022-11-29T02:29:28.358Z,12.95
2022-11-29T02:32:36.002Z,14.68
2022-11-29T02:35:23.456Z,13.25
2022-11-29T02:37:59.653Z,13.23
2022-11-29T02:41:02.251Z,12.75
2022-11-29T02:43:54.470Z,13.88
2022-11-29T02:46:41.013Z,13.07
2022-11-29T02:49:17.264Z,13.25
2022-11-29T02:52:08.442Z,13.25
2022-11-29T02:54:41.899Z,14.07
2022-11-29T02:57:41.278Z,13.00
2022-11-29T03:00:16.156Z,13.48
2022-11-29T03:02:49.564Z,13.63
2022-11-29T03:05:22.909Z,13.40
2022-11-29T03:08:27.687Z,13.65
2022-11-29T03:11:28.311Z,13.02
2022-11-29T03:14:22.895Z,13.35
2022-11-29T03:17:14.906Z,13.32
2022-11-29T03:20:13.615Z,14.00
2022-11-29T03:23:07.865Z,13.57
2022-11-29T03:26:08.973Z,13.27
2022-11-29T03:29:01.339Z,13.48
2022-11-29T03:31:35.998Z,12.80
2022-11-29T03:34:06.259Z,12.63
2022-11-29T03:37:02.645Z,12.70
2022-11-29T03:42:12.728Z,11.57
2022-11-29T03:44:51.169Z,13.10
2022-11-29T03:47:28.400Z,11.95
2022-11-29T03:50:11.484Z,13.77
2022-11-29T03:52:49.502Z,13.27
2022-11-29T03:56:04.276Z,13.48
2022-11-29T03:59:06.109Z,13.63
2022-11-29T04:02:17.727Z,13.05
2022-11-29T04:05:08.860Z,13.40
2022-11-29T04:07:42.243Z,13.88
2022-11-29T04:10:58.344Z,12.70
2022-11-29T04:13:50.370Z,13.00
2022-11-29T04:16:44.518Z,12.88
2022-11-29T04:19:32.321Z,12.60
2022-11-29T04:22:02.627Z,11.70
2022-11-29T04:25:07.243Z,12.00
2022-11-29T04:27:38.483Z,12.52
2022-11-29T04:30:23.792Z,12.40
2022-11-29T04:33:04.459Z,11.40
2022-11-29T04:35:56.734Z,11.27
2022-11-29T04:38:52.283Z,11.48
2022-11-29T04:41:34.637Z,11.50
2022-11-29T04:44:31.251Z,11.40
2022-11-29T04:47:16.319Z,10.82
2022-11-29T04:50:00.602Z,11.00
2022-11-29T04:52:59.494Z,10.20
2022-11-29T04:55:56.191Z,10.82
2022-11-29T04:58:52.729Z,11.45
2022-11-29T05:01:23.012Z,11.23
2022-11-29T05:04:12.408Z,10.52
2022-11-29T05:06:58.553Z,10.60
2022-11-29T05:10:10.757Z,9.75
2022-11-29T05:13:03.801Z,9.45
2022-11-29T05:15:46.201Z,10.32
2022-11-29T05:18:16.523Z,10.27
2022-11-29T05:21:09.403Z,9.68
2022-11-29T05:23:44.870Z,9.73
2022-11-29T05:26:34.053Z,9.93
2022-11-29T05:29:07.286Z,9.23
2022-11-29T05:31:47.364Z,9.50
2022-11-29T05:34:41.919Z,9.80
2022-11-29T05:37:26.710Z,9.35
2022-11-29T05:40:39.023Z,9.10
2022-11-29T05:43:32.278Z,9.50
2022-11-29T05:46:18.041Z,9.32
2022-11-29T05:51:41.414Z,8.95
2022-11-29T05:54:30.064Z,8.65
2022-11-29T05:57:23.968Z,8.98
2022-11-29T05:59:53.053Z,8.75
2022-11-29T06:02:26.238Z,9.15
2022-11-29T06:05:13.413Z,8.75
2022-11-29T06:07:51.774Z,8.82
2022-11-29T06:10:23.130Z,8.52
2022-11-29T06:13:27.927Z,9.13
2022-11-29T06:16:14.744Z,8.27
2022-11-29T06:19:17.720Z,8.32
2022-11-29T06:22:20.944Z,7.43
2022-11-29T06:25:21.702Z,7.65
2022-11-29T06:27:57.619Z,6.93
2022-11-29T06:30:45.124Z,7.95
2022-11-29T06:33:22.152Z,7.60
2022-11-29T06:35:58.059Z,7.18
2022-11-29T06:38:30.744Z,7.00
2022-11-29T06:41:02.233Z,7.50
2022-11-29T06:43:30.997Z,7.32
2022-11-29T06:46:10.594Z,7.05
2022-11-29T06:49:06.606Z,6.68
2022-11-29T06:51:39.927Z,6.50
2022-11-29T06:54:25.356Z,6.20
2022-11-29T06:57:06.598Z,7.07
2022-11-29T06:59:55.754Z,6.25
2022-11-29T07:02:55.784Z,6.68
2022-11-29T07:05:29.189Z,6.63
2022-11-29T07:08:02.331Z,6.72
2022-11-29T07:10:33.326Z,6.90
2022-11-29T07:13:02.058Z,6.82
2022-11-29T07:15:29.980Z,6.68
2022-11-29T07:18:19.090Z,6.75
2022-11-29T07:21:04.416Z,6.78
2022-11-29T07:23:31.733Z,7.70
2022-11-29T07:26:15.917Z,6.90
2022-11-29T07:29:00.203Z,6.90
2022-11-29T07:31:30.492Z,7.03
2022-11-29T07:34:03.859Z,6.75
2022-11-29T07:36:48.614Z,6.82
2022-11-29T07:39:31.183Z,6.93
2022-11-29T07:42:07.462Z,6.95
2022-11-29T07:45:19.008Z,7.05
2022-11-29T07:47:46.500Z,6.50
2022-11-29T07:50:14.364Z,6.80
2022-11-29T07:52:43.099Z,7.30
2022-11-29T07:55:19.477Z,6.50
2022-11-29T07:57:48.112Z,7.40
2022-11-29T08:00:16.564Z,7.18
2022-11-29T08:02:44.592Z,7.18
2022-11-29T08:05:12.782Z,6.72
2022-11-29T08:07:41.765Z,7.38
2022-11-29T08:10:13.012Z,7.25
2022-11-29T08:12:46.717Z,7.32
2022-11-29T08:15:14.603Z,7.20
2022-11-29T08:17:42.577Z,7.07
2022-11-29T08:20:11.340Z,7.25
2022-11-29T08:22:39.094Z,7.45
2022-11-29T08:25:07.949Z,7.35
2022-11-29T08:27:36.481Z,7.22
2022-11-29T08:30:05.342Z,7.15
2022-11-29T08:32:34.620Z,7.43
2022-11-29T08:35:02.197Z,6.55
2022-11-29T08:37:29.648Z,7.13
2022-11-29T08:39:58.360Z,7.43
2022-11-29T08:42:25.869Z,7.00
2022-11-29T08:44:53.284Z,7.05
2022-11-29T08:47:36.035Z,7.18
2022-11-29T08:50:07.213Z,7.00
2022-11-29T08:52:56.548Z,7.40
2022-11-29T08:55:26.821Z,7.40
2022-11-29T08:58:00.109Z,6.88
2022-11-29T09:00:27.433Z,6.75
2022-11-29T09:02:55.040Z,6.32
2022-11-29T09:05:22.738Z,6.53
2022-11-29T09:07:51.194Z,6.63
2022-11-29T09:10:18.878Z,6.28
2022-11-29T09:12:46.550Z,6.40
2022-11-29T09:15:13.974Z,6.15
2022-11-29T09:17:42.432Z,6.63
2022-11-29T09:20:10.299Z,6.57
2022-11-29T09:22:37.720Z,6.55
2022-11-29T09:25:05.969Z,6.22
2022-11-29T09:27:33.515Z,6.20
2022-11-29T09:30:00.991Z,6.40
2022-11-29T09:32:28.623Z,5.82
2022-11-29T09:34:56.126Z,6.00
2022-11-29T09:37:23.563Z,6.82
2022-11-29T09:39:51.007Z,6.28
2022-11-29T09:42:52.012Z,6.57
2022-11-29T09:45:24.479Z,6.50
2022-11-29T09:48:00.818Z,6.60
2022-11-29T09:50:54.536Z,6.22
2022-11-29T09:53:38.440Z,6.47
2022-11-29T09:56:27.270Z,6.50
2022-11-29T09:59:00.832Z,6.10
2022-11-29T10:01:46.661Z,6.18
2022-11-29T10:04:24.275Z,6.40
2022-11-29T10:07:06.773Z,5.97
2022-11-29T10:09:44.366Z,6.20
2022-11-29T10:12:37.236Z,6.35
2022-11-29T10:15:10.782Z,5.47
2022-11-29T10:17:46.899Z,5.85
2022-11-29T10:20:27.098Z,6.03
2022-11-29T10:23:33.114Z,6.50
2022-11-29T10:26:00.837Z,6.13
2022-11-29T10:28:31.628Z,6.45
2022-11-29T10:31:13.349Z,6.45
2022-11-29T10:33:42.111Z,6.00
2022-11-29T10:36:22.594Z,6.28
2022-11-29T10:38:52.380Z,6.25
2022-11-29T10:41:23.039Z,6.60
2022-11-29T10:43:52.235Z,5.75
2022-11-29T10:46:30.047Z,5.60
2022-11-29T10:49:05.161Z,6.30
2022-11-29T10:51:35.011Z,6.25
2022-11-29T10:54:14.182Z,6.05
2022-11-29T10:56:44.240Z,6.53
2022-11-29T10:59:22.999Z,6.53
2022-11-29T11:01:51.741Z,6.30
2022-11-29T11:04:43.596Z,6.72
2022-11-29T11:07:42.029Z,5.60
2022-11-29T11:10:26.921Z,5.68
2022-11-29T11:13:07.224Z,6.10
2022-11-29T11:15:36.106Z,5.57
2022-11-29T11:18:06.435Z,5.88
2022-11-29T11:20:41.581Z,6.15
2022-11-29T11:23:42.391Z,6.32
2022-11-29T11:26:13.352Z,6.07
2022-11-29T11:28:51.314Z,5.80
2022-11-29T11:31:38.169Z,5.70
2022-11-29T11:34:28.955Z,5.65
2022-11-29T11:37:16.628Z,5.50
2022-11-29T11:39:46.179Z,5.75
2022-11-29T11:42:38.049Z,5.78
2022-11-29T11:45:24.118Z,5.88
2022-11-29T11:47:55.018Z,6.03
2022-11-29T11:50:37.876Z,5.72
2022-11-29T11:53:17.536Z,6.60
2022-11-29T11:56:00.825Z,5.90
2022-11-29T11:58:45.536Z,5.88
2022-11-29T12:01:12.906Z,5.97
2022-11-29T12:04:12.594Z,7.75
2022-11-29T12:07:00.646Z,8.90
2022-11-29T12:09:38.834Z,9.82
2022-11-29T12:12:15.012Z,9.07
2022-11-29T12:14:51.320Z,9.32
2022-11-29T12:17:34.555Z,8.82
2022-11-29T12:20:28.409Z,8.60
2022-11-29T12:23:13.982Z,8.70
2022-11-29T12:26:05.983Z,8.27
2022-11-29T12:28:38.652Z,9.25
2022-11-29T12:31:38.592Z,9.55
2022-11-29T12:34:43.468Z,8.95
2022-11-29T12:37:26.017Z,9.30
2022-11-29T12:40:03.082Z,9.95
2022-11-29T12:42:54.835Z,9.95
2022-11-29T12:45:34.508Z,8.95
2022-11-29T12:48:34.008Z,9.63
2022-11-29T12:51:27.543Z,8.98
2022-11-29T12:54:13.058Z,8.77
2022-11-29T12:56:50.239Z,8.68
2022-11-29T12:59:31.732Z,8.50
2022-11-29T13:02:14.210Z,9.13
2022-11-29T13:04:55.024Z,8.57
2022-11-29T13:07:35.989Z,8.88
2022-11-29T13:10:18.478Z,8.57
2022-11-29T13:13:11.591Z,9.05
2022-11-29T13:15:49.684Z,8.98
2022-11-29T13:18:25.633Z,9.73
2022-11-29T13:21:01.647Z,9.00
2022-11-29T13:23:46.150Z,9.50
2022-11-29T13:26:27.137Z,8.87
2022-11-29T13:28:55.390Z,9.27
2022-11-29T13:31:24.940Z,9.40
2022-11-29T13:34:04.491Z,8.98
2022-11-29T13:36:53.200Z,9.35
2022-11-29T13:39:41.487Z,9.32
2022-11-29T13:42:20.830Z,8.43
2022-11-29T13:45:18.516Z,8.93
2022-11-29T13:47:51.176Z,9.25
2022-11-29T13:50:39.811Z,8.90
2022-11-29T13:53:18.732Z,9.18
2022-11-29T13:56:01.801Z,8.93
2022-11-29T13:58:29.469Z,8.82
2022-11-29T14:01:02.771Z,8.75
2022-11-29T14:03:36.789Z,9.13
2022-11-29T14:06:18.811Z,9.35
2022-11-29T14:09:23.345Z,9.60
2022-11-29T14:12:01.569Z,8.95
2022-11-29T14:14:36.341Z,8.65
2022-11-29T14:17:06.066Z,9.55
2022-11-29T14:19:36.223Z,8.77
2022-11-29T14:22:05.652Z,8.98
2022-11-29T14:24:33.280Z,8.90
2022-11-29T14:27:06.414Z,8.77
2022-11-29T14:29:55.301Z,8.98
2022-11-29T14:32:44.431Z,9.05
2022-11-29T14:35:29.610Z,9.15
2022-11-29T14:38:15.551Z,8.43
2022-11-29T14:43:40.758Z,8.40
2022-11-29T14:46:14.180Z,8.35
2022-11-29T14:48:59.248Z,7.32
2022-11-29T14:51:30.894Z,8.18
2022-11-29T14:54:13.571Z,8.48
2022-11-29T14:56:43.265Z,8.60
2022-11-29T14:59:48.432Z,8.27
2022-11-29T15:02:57.275Z,7.53
2022-11-29T15:05:44.951Z,7.82
2022-11-29T15:08:47.658Z,8.35
2022-11-29T15:11:26.761Z,8.13
2022-11-29T15:14:02.781Z,8.80
2022-11-29T15:16:39.692Z,8.32
2022-11-29T15:19:45.476Z,8.27
2022-11-29T15:22:22.448Z,7.70
2022-11-29T15:25:05.304Z,8.02
2022-11-29T15:27:37.393Z,8.20
2022-11-29T15:30:28.676Z,9.13
2022-11-29T15:32:57.665Z,9.23
2022-11-29T15:35:25.476Z,9.05
2022-11-29T15:37:53.963Z,8.98
2022-11-29T15:40:31.486Z,8.98
2022-11-29T15:43:14.177Z,8.30
2022-11-29T15:45:47.542Z,8.85
2022-11-29T15:48:23.585Z,9.57
2022-11-29T15:51:02.369Z,9.15
2022-11-29T15:54:11.274Z,8.95
2022-11-29T15:56:45.446Z,8.80
2022-11-29T15:59:39.655Z,8.55
2022-11-29T16:02:13.380Z,9.52
2022-11-29T16:04:46.819Z,9.07
2022-11-29T16:07:15.825Z,9.60
2022-11-29T16:09:50.060Z,9.18
2022-11-29T16:12:18.717Z,9.77
2022-11-29T16:14:50.539Z,9.65
2022-11-29T17:34:32.909Z,16.52
2022-11-29T17:38:10.833Z,15.02
2022-11-29T17:46:16.520Z,19.23
2022-11-29T17:49:14.613Z,20.10
2022-11-29T17:52:00.148Z,19.83
2022-11-29T17:54:45.387Z,21.33
2022-11-29T18:01:27.450Z,22.08
2022-11-29T18:08:18.340Z,20.83
2022-11-29T18:11:48.564Z,21.48
2022-11-29T18:14:22.433Z,20.63
2022-11-29T18:16:53.417Z,20.15
2022-11-29T18:19:24.223Z,20.25
2022-11-29T18:21:52.406Z,20.52
2022-11-29T18:24:20.325Z,19.80
2022-11-29T18:26:52.947Z,19.65
2022-11-29T18:29:20.856Z,19.00
2022-11-29T18:31:48.588Z,19.33
2022-11-29T18:34:16.370Z,18.83
2022-11-29T18:36:46.217Z,19.88
2022-11-29T18:39:18.055Z,19.42
2022-11-29T18:41:50.119Z,18.65
2022-11-29T18:44:22.507Z,18.55
2022-11-29T18:49:22.761Z,17.73
2022-11-29T18:51:50.507Z,17.05
2022-11-29T18:54:19.368Z,16.33
2022-11-29T18:56:47.016Z,17.20
2022-11-29T18:59:17.793Z,16.85
2022-11-29T19:01:48.684Z,16.90
2022-11-29T19:04:22.166Z,16.80
2022-11-29T19:07:08.651Z,16.40
2022-11-29T19:09:48.137Z,17.38
2022-11-29T19:15:42.452Z,18.05
2022-11-29T19:18:12.215Z,16.88
2022-11-29T19:20:54.411Z,19.20
2022-11-29T19:23:31.058Z,19.08
2022-11-29T19:26:10.372Z,21.75
2022-11-29T19:28:43.808Z,22.02
2022-11-29T19:31:17.350Z,21.67
2022-11-29T19:33:45.982Z,21.30
2022-11-29T19:36:20.023Z,21.88
2022-11-29T19:38:53.715Z,21.80
2022-11-29T19:41:30.689Z,21.77
2022-11-29T19:44:03.776Z,20.00
2022-11-29T19:46:39.898Z,18.67
2022-11-29T19:49:08.620Z,20.25
2022-11-29T19:51:36.850Z,20.95
2022-11-29T19:54:06.900Z,19.58
2022-11-29T19:56:35.734Z,20.23
2022-11-29T19:59:03.754Z,20.23
2022-11-29T20:01:43.687Z,19.33
2022-11-29T20:04:13.791Z,18.63
2022-11-29T20:06:41.638Z,18.73
2022-11-29T20:09:09.870Z,18.25
2022-11-29T20:11:37.575Z,18.63
2022-11-29T20:14:07.014Z,17.35
2022-11-29T20:16:35.133Z,18.20
2022-11-29T20:19:09.874Z,18.45
2022-11-29T20:21:42.400Z,17.97
2022-11-29T20:24:11.481Z,18.15
2022-11-29T20:26:40.568Z,18.05
2022-11-29T20:29:09.439Z,18.17
2022-11-29T20:31:39.698Z,17.30
2022-11-29T20:45:19.505Z,18.02
2022-11-29T21:42:43.554Z,15.45
2022-11-29T21:45:24.075Z,14.05
2022-11-29T21:48:32.352Z,15.02
2022-11-29T23:24:16.982Z,14.35
